sensor_id;sensor_type;location;lat;lon;timestamp;temperature;humidity
5210;DHT22;2624;48.048;11.706;2023-12-14T00:02:32;4.70;99.90
5210;DHT22;2624;48.048;11.706;2023-12-14T00:07:35;4.90;99.90
5210;DHT22;2624;48.048;11.706;2023-12-14T00:12:37;4.90;99.90
5210;DHT22;2624;48.048;11.706;2023-12-14T00:17:38;4.90;99.90
5210;DHT22;2624;48.048;11.706;2023-12-14T00:22:42;4.90;99.90
5210;DHT22;2624;48.048;11.706;2023-12-14T00:27:43;4.90;99.90
5210;DHT22;2624;48.048;11.706;2023-12-14T00:32:45;4.90;99.90
5210;DHT22;2624;48.048;11.706;2023-12-14T00:37:48;4.80;99.90
5210;DHT22;2624;48.048;11.706;2023-12-14T00:42:50;4.50;99.90
5210;DHT22;2624;48.048;11.706;2023-12-14T00:47:52;4.90;99.90
5210;DHT22;2624;48.048;11.706;2023-12-14T00:52:55;4.70;99.90
5210;DHT22;2624;48.048;11.706;2023-12-14T00:57:56;4.60;99.90
5210;DHT22;2624;48.048;11.706;2023-12-14T01:02:58;5.10;99.90
5210;DHT22;2624;48.048;11.706;2023-12-14T01:08:01;4.80;99.90
5210;DHT22;2624;48.048;11.706;2023-12-14T01:13:03;4.80;99.90
5210;DHT22;2624;48.048;11.706;2023-12-14T01:18:05;4.70;99.90
5210;DHT22;2624;48.048;11.706;2023-12-14T01:23:08;4.90;99.90
5210;DHT22;2624;48.048;11.706;2023-12-14T01:28:10;4.80;99.90
5210;DHT22;2624;48.048;11.706;2023-12-14T01:33:14;4.90;99.90
5210;DHT22;2624;48.048;11.706;2023-12-14T01:38:17;4.80;99.90
5210;DHT22;2624;48.048;11.706;2023-12-14T01:43:19;4.80;99.90
5210;DHT22;2624;48.048;11.706;2023-12-14T01:48:21;4.80;99.90
5210;DHT22;2624;48.048;11.706;2023-12-14T01:53:24;4.80;99.90
5210;DHT22;2624;48.048;11.706;2023-12-14T01:58:26;4.70;99.90
5210;DHT22;2624;48.048;11.706;2023-12-14T02:03:27;5.00;99.90
5210;DHT22;2624;48.048;11.706;2023-12-14T02:08:31;5.00;99.90
5210;DHT22;2624;48.048;11.706;2023-12-14T02:13:32;4.80;99.90
5210;DHT22;2624;48.048;11.706;2023-12-14T02:18:34;4.80;99.90
5210;DHT22;2624;48.048;11.706;2023-12-14T02:23:43;4.80;99.90
5210;DHT22;2624;48.048;11.706;2023-12-14T02:28:44;4.80;99.90
5210;DHT22;2624;48.048;11.706;2023-12-14T02:33:46;4.80;99.90
5210;DHT22;2624;48.048;11.706;2023-12-14T02:38:49;4.90;99.90
5210;DHT22;2624;48.048;11.706;2023-12-14T02:43:51;4.90;99.90
5210;DHT22;2624;48.048;11.706;2023-12-14T02:48:53;5.00;99.90
5210;DHT22;2624;48.048;11.706;2023-12-14T02:53:56;5.00;99.90
5210;DHT22;2624;48.048;11.706;2023-12-14T02:58:58;4.90;99.90
5210;DHT22;2624;48.048;11.706;2023-12-14T03:04:00;4.70;99.90
5210;DHT22;2624;48.048;11.706;2023-12-14T03:09:03;4.90;99.90
5210;DHT22;2624;48.048;11.706;2023-12-14T03:14:05;5.00;99.90
5210;DHT22;2624;48.048;11.706;2023-12-14T03:19:06;4.70;99.90
5210;DHT22;2624;48.048;11.706;2023-12-14T03:24:09;5.00;99.90
5210;DHT22;2624;48.048;11.706;2023-12-14T03:29:12;4.60;99.90
5210;DHT22;2624;48.048;11.706;2023-12-14T03:34:14;4.60;99.90
5210;DHT22;2624;48.048;11.706;2023-12-14T03:39:17;4.50;99.90
5210;DHT22;2624;48.048;11.706;2023-12-14T03:44:19;4.60;99.90
5210;DHT22;2624;48.048;11.706;2023-12-14T03:49:21;4.90;99.90
5210;DHT22;2624;48.048;11.706;2023-12-14T03:54:24;4.80;99.90
5210;DHT22;2624;48.048;11.706;2023-12-14T03:59:26;4.70;99.90
5210;DHT22;2624;48.048;11.706;2023-12-14T04:04:27;4.80;99.90
5210;DHT22;2624;48.048;11.706;2023-12-14T04:09:30;4.70;99.90
5210;DHT22;2624;48.048;11.706;2023-12-14T04:14:32;4.70;99.90
5210;DHT22;2624;48.048;11.706;2023-12-14T04:19:34;4.80;99.90
5210;DHT22;2624;48.048;11.706;2023-12-14T04:24:37;4.60;99.90
5210;DHT22;2624;48.048;11.706;2023-12-14T04:29:39;4.60;99.90
5210;DHT22;2624;48.048;11.706;2023-12-14T04:34:40;4.80;99.90
5210;DHT22;2624;48.048;11.706;2023-12-14T04:39:43;4.80;99.90
5210;DHT22;2624;48.048;11.706;2023-12-14T04:44:47;4.80;99.90
5210;DHT22;2624;48.048;11.706;2023-12-14T04:49:49;4.80;99.90
5210;DHT22;2624;48.048;11.706;2023-12-14T04:54:52;4.60;99.90
5210;DHT22;2624;48.048;11.706;2023-12-14T04:59:54;4.60;99.90
5210;DHT22;2624;48.048;11.706;2023-12-14T05:04:55;4.70;99.90
5210;DHT22;2624;48.048;11.706;2023-12-14T05:09:58;4.70;99.90
5210;DHT22;2624;48.048;11.706;2023-12-14T05:15:00;4.70;99.90
5210;DHT22;2624;48.048;11.706;2023-12-14T05:20:03;4.30;99.90
5210;DHT22;2624;48.048;11.706;2023-12-14T05:25:08;4.70;99.90
5210;DHT22;2624;48.048;11.706;2023-12-14T05:30:10;4.70;99.90
5210;DHT22;2624;48.048;11.706;2023-12-14T05:35:12;4.50;99.90
5210;DHT22;2624;48.048;11.706;2023-12-14T05:40:15;4.40;99.90
5210;DHT22;2624;48.048;11.706;2023-12-14T05:45:17;4.70;99.90
5210;DHT22;2624;48.048;11.706;2023-12-14T05:50:20;4.50;99.90
5210;DHT22;2624;48.048;11.706;2023-12-14T05:55:24;4.60;99.90
5210;DHT22;2624;48.048;11.706;2023-12-14T06:00:25;4.40;99.90
5210;DHT22;2624;48.048;11.706;2023-12-14T06:05:27;4.50;99.90
5210;DHT22;2624;48.048;11.706;2023-12-14T06:10:30;4.60;99.90
5210;DHT22;2624;48.048;11.706;2023-12-14T06:15:32;4.40;99.90
5210;DHT22;2624;48.048;11.706;2023-12-14T06:20:34;4.50;99.90
5210;DHT22;2624;48.048;11.706;2023-12-14T06:25:37;4.60;99.90
5210;DHT22;2624;48.048;11.706;2023-12-14T06:30:39;4.30;99.90
5210;DHT22;2624;48.048;11.706;2023-12-14T06:35:40;4.50;99.90
5210;DHT22;2624;48.048;11.706;2023-12-14T06:40:45;4.50;99.90
5210;DHT22;2624;48.048;11.706;2023-12-14T06:45:46;4.60;99.90
5210;DHT22;2624;48.048;11.706;2023-12-14T06:50:48;4.50;99.90
5210;DHT22;2624;48.048;11.706;2023-12-14T06:55:51;4.50;99.90
5210;DHT22;2624;48.048;11.706;2023-12-14T07:00:53;4.40;99.90
5210;DHT22;2624;48.048;11.706;2023-12-14T07:05:55;4.50;99.90
5210;DHT22;2624;48.048;11.706;2023-12-14T07:10:58;4.40;99.90
5210;DHT22;2624;48.048;11.706;2023-12-14T07:16:00;4.50;99.90
5210;DHT22;2624;48.048;11.706;2023-12-14T07:21:01;4.40;99.90
5210;DHT22;2624;48.048;11.706;2023-12-14T07:26:05;4.50;99.90
5210;DHT22;2624;48.048;11.706;2023-12-14T07:31:07;4.40;99.90
5210;DHT22;2624;48.048;11.706;2023-12-14T07:36:09;4.40;99.90
5210;DHT22;2624;48.048;11.706;2023-12-14T07:41:12;4.40;99.90
5210;DHT22;2624;48.048;11.706;2023-12-14T07:46:14;4.40;99.90
5210;DHT22;2624;48.048;11.706;2023-12-14T07:51:15;4.40;99.90
5210;DHT22;2624;48.048;11.706;2023-12-14T07:56:19;4.50;99.90
5210;DHT22;2624;48.048;11.706;2023-12-14T08:01:25;4.30;99.90
5210;DHT22;2624;48.048;11.706;2023-12-14T08:06:27;4.30;99.90
5210;DHT22;2624;48.048;11.706;2023-12-14T08:11:30;4.40;99.90
5210;DHT22;2624;48.048;11.706;2023-12-14T08:16:32;4.50;99.90
5210;DHT22;2624;48.048;11.706;2023-12-14T08:21:33;4.40;99.90
5210;DHT22;2624;48.048;11.706;2023-12-14T08:26:37;4.30;99.90
5210;DHT22;2624;48.048;11.706;2023-12-14T08:31:38;4.50;99.90
5210;DHT22;2624;48.048;11.706;2023-12-14T08:36:40;4.30;99.90
5210;DHT22;2624;48.048;11.706;2023-12-14T08:41:43;4.30;99.90
5210;DHT22;2624;48.048;11.706;2023-12-14T08:46:46;4.30;99.90
5210;DHT22;2624;48.048;11.706;2023-12-14T08:51:49;4.60;99.90
5210;DHT22;2624;48.048;11.706;2023-12-14T08:56:53;4.50;99.90
5210;DHT22;2624;48.048;11.706;2023-12-14T09:01:54;4.50;99.90
5210;DHT22;2624;48.048;11.706;2023-12-14T09:06:56;4.60;99.90
5210;DHT22;2624;48.048;11.706;2023-12-14T09:11:59;4.60;99.90
5210;DHT22;2624;48.048;11.706;2023-12-14T09:17:01;4.50;99.90
5210;DHT22;2624;48.048;11.706;2023-12-14T09:22:03;4.60;99.90
5210;DHT22;2624;48.048;11.706;2023-12-14T09:27:06;4.70;99.90
5210;DHT22;2624;48.048;11.706;2023-12-14T09:32:08;4.50;99.90
5210;DHT22;2624;48.048;11.706;2023-12-14T09:37:10;4.70;99.90
5210;DHT22;2624;48.048;11.706;2023-12-14T09:42:18;4.70;99.90
5210;DHT22;2624;48.048;11.706;2023-12-14T09:47:20;4.60;99.90
5210;DHT22;2624;48.048;11.706;2023-12-14T09:52:22;4.60;99.90
5210;DHT22;2624;48.048;11.706;2023-12-14T09:57:25;4.60;99.90
5210;DHT22;2624;48.048;11.706;2023-12-14T10:02:27;4.70;99.90
5210;DHT22;2624;48.048;11.706;2023-12-14T10:07:30;4.70;99.90
5210;DHT22;2624;48.048;11.706;2023-12-14T10:12:50;4.80;99.90
5210;DHT22;2624;48.048;11.706;2023-12-14T10:17:52;4.70;99.90
5210;DHT22;2624;48.048;11.706;2023-12-14T10:22:55;4.70;99.90
5210;DHT22;2624;48.048;11.706;2023-12-14T10:27:58;4.70;99.90
5210;DHT22;2624;48.048;11.706;2023-12-14T10:33:01;4.80;99.90
5210;DHT22;2624;48.048;11.706;2023-12-14T10:38:04;4.70;99.90
5210;DHT22;2624;48.048;11.706;2023-12-14T10:43:08;4.80;99.90
5210;DHT22;2624;48.048;11.706;2023-12-14T10:48:10;4.70;99.90
5210;DHT22;2624;48.048;11.706;2023-12-14T10:53:13;4.70;99.90
5210;DHT22;2624;48.048;11.706;2023-12-14T10:58:17;4.80;99.90
5210;DHT22;2624;48.048;11.706;2023-12-14T11:03:21;4.80;99.90
5210;DHT22;2624;48.048;11.706;2023-12-14T11:08:23;4.80;99.90
5210;DHT22;2624;48.048;11.706;2023-12-14T11:13:26;4.80;99.90
5210;DHT22;2624;48.048;11.706;2023-12-14T11:18:28;4.80;99.90
5210;DHT22;2624;48.048;11.706;2023-12-14T11:23:35;4.80;99.90
5210;DHT22;2624;48.048;11.706;2023-12-14T11:28:40;5.00;99.90
5210;DHT22;2624;48.048;11.706;2023-12-14T11:33:43;5.00;99.90
5210;DHT22;2624;48.048;11.706;2023-12-14T11:38:47;5.00;99.90
5210;DHT22;2624;48.048;11.706;2023-12-14T11:43:52;4.90;99.90
5210;DHT22;2624;48.048;11.706;2023-12-14T11:48:56;4.90;99.90
5210;DHT22;2624;48.048;11.706;2023-12-14T11:54:00;5.00;99.90
5210;DHT22;2624;48.048;11.706;2023-12-14T11:59:04;4.90;99.90
5210;DHT22;2624;48.048;11.706;2023-12-14T12:04:10;5.00;99.90
5210;DHT22;2624;48.048;11.706;2023-12-14T12:09:11;5.10;99.90
5210;DHT22;2624;48.048;11.706;2023-12-14T12:14:15;5.10;99.90
5210;DHT22;2624;48.048;11.706;2023-12-14T12:19:18;5.10;99.90
5210;DHT22;2624;48.048;11.706;2023-12-14T12:24:20;5.20;99.90
5210;DHT22;2624;48.048;11.706;2023-12-14T12:29:23;5.10;99.90
5210;DHT22;2624;48.048;11.706;2023-12-14T12:34:25;5.20;99.90
5210;DHT22;2624;48.048;11.706;2023-12-14T12:39:27;5.10;99.90
5210;DHT22;2624;48.048;11.706;2023-12-14T12:44:30;5.20;99.90
5210;DHT22;2624;48.048;11.706;2023-12-14T12:49:32;5.20;99.90
5210;DHT22;2624;48.048;11.706;2023-12-14T12:54:34;5.10;99.90
5210;DHT22;2624;48.048;11.706;2023-12-14T12:59:37;5.20;99.90
5210;DHT22;2624;48.048;11.706;2023-12-14T13:04:38;5.20;99.90
5210;DHT22;2624;48.048;11.706;2023-12-14T13:09:40;5.10;99.90
5210;DHT22;2624;48.048;11.706;2023-12-14T13:14:43;5.10;99.90
5210;DHT22;2624;48.048;11.706;2023-12-14T13:19:45;5.20;99.90
5210;DHT22;2624;48.048;11.706;2023-12-14T13:24:47;5.20;99.90
5210;DHT22;2624;48.048;11.706;2023-12-14T13:29:51;5.10;99.90
5210;DHT22;2624;48.048;11.706;2023-12-14T13:34:53;5.20;99.90
5210;DHT22;2624;48.048;11.706;2023-12-14T13:39:54;5.20;99.90
5210;DHT22;2624;48.048;11.706;2023-12-14T13:44:58;5.20;99.90
5210;DHT22;2624;48.048;11.706;2023-12-14T13:49:59;5.10;99.90
5210;DHT22;2624;48.048;11.706;2023-12-14T13:55:04;5.10;99.90
5210;DHT22;2624;48.048;11.706;2023-12-14T14:00:08;5.20;99.90
5210;DHT22;2624;48.048;11.706;2023-12-14T14:05:12;5.10;99.90
5210;DHT22;2624;48.048;11.706;2023-12-14T14:10:14;5.20;99.90
5210;DHT22;2624;48.048;11.706;2023-12-14T14:15:17;5.10;99.90
5210;DHT22;2624;48.048;11.706;2023-12-14T14:20:20;5.20;99.90
5210;DHT22;2624;48.048;11.706;2023-12-14T14:25:22;5.20;99.90
5210;DHT22;2624;48.048;11.706;2023-12-14T14:30:26;5.10;99.90
5210;DHT22;2624;48.048;11.706;2023-12-14T14:35:27;5.20;99.90
5210;DHT22;2624;48.048;11.706;2023-12-14T14:40:29;5.20;99.90
5210;DHT22;2624;48.048;11.706;2023-12-14T14:45:32;5.20;99.90
5210;DHT22;2624;48.048;11.706;2023-12-14T14:50:34;5.10;99.90
5210;DHT22;2624;48.048;11.706;2023-12-14T14:55:36;5.10;99.90
5210;DHT22;2624;48.048;11.706;2023-12-14T15:00:39;5.20;99.90
5210;DHT22;2624;48.048;11.706;2023-12-14T15:05:41;5.10;99.90
5210;DHT22;2624;48.048;11.706;2023-12-14T15:10:43;5.10;99.90
5210;DHT22;2624;48.048;11.706;2023-12-14T15:15:46;5.10;99.90
5210;DHT22;2624;48.048;11.706;2023-12-14T15:20:48;5.00;99.90
5210;DHT22;2624;48.048;11.706;2023-12-14T15:25:52;5.00;99.90
5210;DHT22;2624;48.048;11.706;2023-12-14T15:30:55;5.00;99.90
5210;DHT22;2624;48.048;11.706;2023-12-14T15:35:56;5.00;99.90
5210;DHT22;2624;48.048;11.706;2023-12-14T15:40:58;4.90;99.90
5210;DHT22;2624;48.048;11.706;2023-12-14T15:46:01;4.90;99.90
5210;DHT22;2624;48.048;11.706;2023-12-14T15:51:03;4.90;99.90
5210;DHT22;2624;48.048;11.706;2023-12-14T15:56:06;4.80;99.90
5210;DHT22;2624;48.048;11.706;2023-12-14T16:01:09;4.80;99.90
5210;DHT22;2624;48.048;11.706;2023-12-14T16:06:12;4.80;99.90
5210;DHT22;2624;48.048;11.706;2023-12-14T16:11:14;4.80;99.90
5210;DHT22;2624;48.048;11.706;2023-12-14T16:16:17;4.80;99.90
5210;DHT22;2624;48.048;11.706;2023-12-14T16:21:19;4.70;99.90
5210;DHT22;2624;48.048;11.706;2023-12-14T16:26:21;4.70;99.90
5210;DHT22;2624;48.048;11.706;2023-12-14T16:31:24;4.70;99.90
5210;DHT22;2624;48.048;11.706;2023-12-14T16:36:26;4.70;99.90
5210;DHT22;2624;48.048;11.706;2023-12-14T16:41:28;4.80;99.90
5210;DHT22;2624;48.048;11.706;2023-12-14T16:46:31;4.80;99.90
5210;DHT22;2624;48.048;11.706;2023-12-14T16:51:33;4.80;99.90
5210;DHT22;2624;48.048;11.706;2023-12-14T16:56:35;4.70;99.90
5210;DHT22;2624;48.048;11.706;2023-12-14T17:01:44;4.70;99.90
5210;DHT22;2624;48.048;11.706;2023-12-14T17:06:45;4.80;99.90
5210;DHT22;2624;48.048;11.706;2023-12-14T17:11:47;4.70;99.90
5210;DHT22;2624;48.048;11.706;2023-12-14T17:16:50;4.80;99.90
5210;DHT22;2624;48.048;11.706;2023-12-14T17:21:54;4.70;99.90
5210;DHT22;2624;48.048;11.706;2023-12-14T17:26:56;4.70;99.90
5210;DHT22;2624;48.048;11.706;2023-12-14T17:32:00;4.70;99.90
5210;DHT22;2624;48.048;11.706;2023-12-14T17:37:01;4.80;99.90
5210;DHT22;2624;48.048;11.706;2023-12-14T17:42:04;4.80;99.90
5210;DHT22;2624;48.048;11.706;2023-12-14T17:47:07;4.70;99.90
5210;DHT22;2624;48.048;11.706;2023-12-14T17:52:08;4.70;99.90
5210;DHT22;2624;48.048;11.706;2023-12-14T17:57:10;4.70;99.90
5210;DHT22;2624;48.048;11.706;2023-12-14T18:02:13;4.70;99.90
5210;DHT22;2624;48.048;11.706;2023-12-14T18:07:15;4.70;99.90
5210;DHT22;2624;48.048;11.706;2023-12-14T18:12:17;4.70;99.90
5210;DHT22;2624;48.048;11.706;2023-12-14T18:17:21;4.70;99.90
5210;DHT22;2624;48.048;11.706;2023-12-14T18:22:23;4.60;99.90
5210;DHT22;2624;48.048;11.706;2023-12-14T18:27:24;4.50;99.90
5210;DHT22;2624;48.048;11.706;2023-12-14T18:32:28;4.60;99.90
5210;DHT22;2624;48.048;11.706;2023-12-14T18:37:31;4.60;99.90
5210;DHT22;2624;48.048;11.706;2023-12-14T18:42:33;4.60;99.90
5210;DHT22;2624;48.048;11.706;2023-12-14T18:47:36;4.60;99.90
5210;DHT22;2624;48.048;11.706;2023-12-14T18:52:38;4.70;99.90
5210;DHT22;2624;48.048;11.706;2023-12-14T18:57:40;4.70;99.90
5210;DHT22;2624;48.048;11.706;2023-12-14T19:02:47;4.70;99.90
5210;DHT22;2624;48.048;11.706;2023-12-14T19:07:48;4.70;99.90
5210;DHT22;2624;48.048;11.706;2023-12-14T19:12:50;4.70;99.90
5210;DHT22;2624;48.048;11.706;2023-12-14T19:17:53;4.50;99.90
5210;DHT22;2624;48.048;11.706;2023-12-14T19:22:55;4.50;99.90
5210;DHT22;2624;48.048;11.706;2023-12-14T19:27:57;4.60;99.90
5210;DHT22;2624;48.048;11.706;2023-12-14T19:33:00;4.70;99.90
5210;DHT22;2624;48.048;11.706;2023-12-14T19:38:02;4.20;99.90
5210;DHT22;2624;48.048;11.706;2023-12-14T19:43:03;4.40;99.90
5210;DHT22;2624;48.048;11.706;2023-12-14T19:48:06;4.50;99.90
5210;DHT22;2624;48.048;11.706;2023-12-14T19:53:08;4.40;99.90
5210;DHT22;2624;48.048;11.706;2023-12-14T19:58:10;4.00;99.90
5210;DHT22;2624;48.048;11.706;2023-12-14T20:03:13;4.10;99.90
5210;DHT22;2624;48.048;11.706;2023-12-14T20:08:15;4.20;99.90
5210;DHT22;2624;48.048;11.706;2023-12-14T20:13:19;4.30;99.90
5210;DHT22;2624;48.048;11.706;2023-12-14T20:18:23;4.40;99.90
5210;DHT22;2624;48.048;11.706;2023-12-14T20:23:25;4.30;99.90
5210;DHT22;2624;48.048;11.706;2023-12-14T20:28:27;4.40;99.90
5210;DHT22;2624;48.048;11.706;2023-12-14T20:33:30;4.50;99.90
5210;DHT22;2624;48.048;11.706;2023-12-14T20:38:32;4.50;99.90
5210;DHT22;2624;48.048;11.706;2023-12-14T20:43:34;4.50;99.90
5210;DHT22;2624;48.048;11.706;2023-12-14T20:48:37;4.40;99.90
5210;DHT22;2624;48.048;11.706;2023-12-14T20:53:40;4.50;99.90
5210;DHT22;2624;48.048;11.706;2023-12-14T20:58:42;4.50;99.90
5210;DHT22;2624;48.048;11.706;2023-12-14T21:03:45;4.60;99.90
5210;DHT22;2624;48.048;11.706;2023-12-14T21:08:50;4.20;99.90
5210;DHT22;2624;48.048;11.706;2023-12-14T21:13:52;4.50;99.90
5210;DHT22;2624;48.048;11.706;2023-12-14T21:18:55;4.40;99.90
5210;DHT22;2624;48.048;11.706;2023-12-14T21:23:57;4.30;99.90
5210;DHT22;2624;48.048;11.706;2023-12-14T21:28:58;4.60;99.90
5210;DHT22;2624;48.048;11.706;2023-12-14T21:34:02;4.50;99.90
5210;DHT22;2624;48.048;11.706;2023-12-14T21:39:03;4.50;99.90
5210;DHT22;2624;48.048;11.706;2023-12-14T21:44:05;4.40;99.90
5210;DHT22;2624;48.048;11.706;2023-12-14T21:49:08;4.40;99.90
5210;DHT22;2624;48.048;11.706;2023-12-14T21:54:10;4.40;99.90
5210;DHT22;2624;48.048;11.706;2023-12-14T21:59:12;4.40;99.90
5210;DHT22;2624;48.048;11.706;2023-12-14T22:04:15;4.40;99.90
5210;DHT22;2624;48.048;11.706;2023-12-14T22:09:17;4.40;99.90
5210;DHT22;2624;48.048;11.706;2023-12-14T22:14:19;4.40;99.90
5210;DHT22;2624;48.048;11.706;2023-12-14T22:19:22;4.40;99.90
5210;DHT22;2624;48.048;11.706;2023-12-14T22:24:26;4.40;99.90
5210;DHT22;2624;48.048;11.706;2023-12-14T22:29:28;4.20;99.90
5210;DHT22;2624;48.048;11.706;2023-12-14T22:34:31;4.40;99.90
5210;DHT22;2624;48.048;11.706;2023-12-14T22:39:32;4.40;99.90
5210;DHT22;2624;48.048;11.706;2023-12-14T22:44:34;4.40;99.90
5210;DHT22;2624;48.048;11.706;2023-12-14T22:49:37;4.40;99.90
5210;DHT22;2624;48.048;11.706;2023-12-14T22:54:39;4.40;99.90
5210;DHT22;2624;48.048;11.706;2023-12-14T22:59:41;4.40;99.90
5210;DHT22;2624;48.048;11.706;2023-12-14T23:04:44;4.40;99.90
5210;DHT22;2624;48.048;11.706;2023-12-14T23:09:46;4.30;99.90
5210;DHT22;2624;48.048;11.706;2023-12-14T23:14:48;4.30;99.90
5210;DHT22;2624;48.048;11.706;2023-12-14T23:19:51;4.40;99.90
5210;DHT22;2624;48.048;11.706;2023-12-14T23:24:53;4.40;99.90
5210;DHT22;2624;48.048;11.706;2023-12-14T23:29:54;4.40;99.90
5210;DHT22;2624;48.048;11.706;2023-12-14T23:34:57;4.40;99.90
5210;DHT22;2624;48.048;11.706;2023-12-14T23:39:59;4.40;99.90
5210;DHT22;2624;48.048;11.706;2023-12-14T23:45:01;4.40;99.90
5210;DHT22;2624;48.048;11.706;2023-12-14T23:50:05;4.30;99.90
5210;DHT22;2624;48.048;11.706;2023-12-14T23:55:08;4.60;99.90
